createdAt,value
2023-04-20T00:00:46.293Z,15.57
2023-04-20T00:03:13.014Z,20.20
2023-04-20T00:05:39.676Z,19.85
2023-04-20T00:08:06.309Z,19.30
2023-04-20T00:10:32.882Z,17.70
2023-04-20T00:12:59.393Z,16.67
2023-04-20T00:15:25.931Z,18.83
2023-04-20T00:17:52.500Z,17.23
2023-04-20T00:20:19.064Z,17.95
2023-04-20T00:22:45.568Z,18.38
2023-04-20T00:25:12.103Z,16.67
2023-04-20T00:27:38.642Z,19.17
2023-04-20T00:30:05.587Z,15.75
2023-04-20T00:32:32.157Z,17.40
2023-04-20T00:34:59.519Z,14.18
2023-04-20T00:37:26.041Z,14.75
2023-04-20T00:39:52.861Z,13.27
2023-04-20T00:42:19.452Z,13.20
2023-04-20T00:44:45.983Z,12.07
2023-04-20T00:47:12.553Z,13.40
2023-04-20T00:49:39.245Z,13.82
2023-04-20T00:52:06.165Z,12.35
2023-04-20T00:54:32.746Z,13.48
2023-04-20T00:56:59.738Z,11.25
2023-04-20T00:59:26.213Z,11.30
2023-04-20T01:01:52.843Z,11.40
2023-04-20T01:04:21.670Z,11.95
2023-04-20T01:06:48.306Z,10.98
2023-04-20T01:09:14.880Z,12.85
2023-04-20T01:11:41.526Z,12.07
2023-04-20T01:14:08.079Z,11.77
2023-04-20T01:16:34.801Z,10.30
2023-04-20T01:19:01.446Z,11.13
2023-04-20T01:21:27.984Z,13.63
2023-04-20T01:23:54.582Z,11.30
2023-04-20T01:26:25.055Z,11.25
2023-04-20T01:31:18.385Z,13.25
2023-04-20T01:33:44.975Z,11.52
2023-04-20T01:36:11.540Z,12.15
2023-04-20T01:38:38.105Z,12.63
2023-04-20T01:41:06.729Z,11.32
2023-04-20T01:43:34.245Z,12.13
2023-04-20T01:46:01.651Z,14.20
2023-04-20T01:48:28.199Z,12.13
2023-04-20T01:50:54.719Z,11.05
2023-04-20T01:53:21.600Z,10.88
2023-04-20T01:55:49.493Z,10.15
2023-04-20T01:58:16.191Z,9.90
2023-04-20T02:00:42.710Z,10.80
2023-04-20T02:03:09.369Z,10.80
2023-04-20T02:05:35.989Z,10.65
2023-04-20T02:08:02.531Z,13.75
2023-04-20T02:10:29.015Z,11.05
2023-04-20T02:12:55.557Z,11.32
2023-04-20T02:15:22.445Z,10.57
2023-04-20T02:17:49.003Z,13.25
2023-04-20T02:20:15.510Z,12.35
2023-04-20T02:22:42.029Z,12.15
2023-04-20T02:25:08.939Z,12.93
2023-04-20T02:27:35.470Z,13.10
2023-04-20T02:30:02.084Z,11.88
2023-04-20T02:32:31.341Z,11.82
2023-04-20T02:34:57.875Z,12.57
2023-04-20T02:37:24.431Z,12.05
2023-04-20T02:39:50.958Z,11.90
2023-04-20T02:42:17.458Z,12.18
2023-04-20T02:44:44.123Z,13.68
2023-04-20T02:47:10.627Z,12.82
2023-04-20T02:49:37.136Z,14.10
2023-04-20T02:52:03.742Z,11.82
2023-04-20T02:54:30.268Z,12.10
2023-04-20T02:56:57.985Z,11.73
2023-04-20T02:59:24.879Z,10.90
2023-04-20T03:01:51.380Z,14.23
2023-04-20T03:04:18.257Z,12.63
2023-04-20T03:06:50.290Z,9.80
2023-04-20T03:09:17.273Z,12.05
2023-04-20T03:11:45.000Z,13.85
2023-04-20T03:14:11.520Z,13.52
2023-04-20T03:16:38.064Z,10.77
2023-04-20T03:19:04.615Z,14.05
2023-04-20T03:21:31.162Z,12.15
2023-04-20T03:23:57.649Z,11.73
2023-04-20T03:26:24.166Z,12.43
2023-04-20T03:28:51.050Z,15.25
2023-04-20T03:31:17.754Z,13.80
2023-04-20T03:33:45.419Z,14.73
2023-04-20T03:36:12.205Z,13.68
2023-04-20T03:38:38.738Z,13.05
2023-04-20T03:41:05.678Z,15.68
2023-04-20T03:43:32.170Z,14.93
2023-04-20T03:45:58.817Z,13.18
2023-04-20T03:48:25.455Z,12.32
2023-04-20T03:50:52.014Z,15.63
2023-04-20T03:53:18.601Z,13.93
2023-04-20T03:55:45.128Z,13.25
2023-04-20T03:58:11.656Z,12.32
2023-04-20T04:00:38.250Z,13.65
2023-04-20T04:03:04.964Z,16.17
2023-04-20T04:05:31.696Z,14.02
2023-04-20T04:07:58.246Z,13.98
2023-04-20T04:10:24.849Z,13.05
2023-04-20T04:12:51.436Z,17.00
2023-04-20T04:15:18.173Z,12.35
2023-04-20T04:17:44.949Z,17.35
2023-04-20T04:20:12.136Z,13.45
2023-04-20T04:22:38.861Z,12.52
2023-04-20T04:25:05.956Z,17.30
2023-04-20T04:27:32.538Z,14.35
2023-04-20T04:29:59.154Z,14.23
2023-04-20T04:32:25.724Z,12.80
2023-04-20T04:34:52.424Z,17.35
2023-04-20T04:37:19.124Z,13.93
2023-04-20T04:39:46.008Z,13.05
2023-04-20T04:42:12.581Z,10.70
2023-04-20T04:44:39.128Z,13.45
2023-04-20T04:47:05.781Z,14.95
2023-04-20T04:49:32.771Z,13.10
2023-04-20T04:51:59.296Z,14.77
2023-04-20T04:54:25.775Z,14.98
2023-04-20T04:56:52.304Z,16.30
2023-04-20T04:59:18.962Z,13.85
2023-04-20T05:01:45.621Z,14.85
2023-04-20T05:04:12.319Z,14.52
2023-04-20T05:06:39.237Z,14.40
2023-04-20T05:09:05.758Z,12.40
2023-04-20T05:11:32.269Z,14.75
2023-04-20T05:13:58.763Z,13.07
2023-04-20T05:16:25.354Z,13.85
2023-04-20T05:18:51.927Z,13.52
2023-04-20T05:21:18.419Z,16.25
2023-04-20T05:23:44.928Z,11.30
2023-04-20T05:26:11.444Z,14.68
2023-04-20T05:28:38.790Z,13.15
2023-04-20T05:31:05.347Z,13.30
2023-04-20T05:33:31.850Z,13.57
2023-04-20T05:36:00.044Z,14.25
2023-04-20T05:38:26.846Z,12.82
2023-04-20T05:40:53.351Z,16.05
2023-04-20T05:43:19.846Z,13.95
2023-04-20T05:45:46.659Z,11.82
2023-04-20T05:48:13.236Z,15.68
2023-04-20T05:50:40.121Z,13.68
2023-04-20T05:53:06.639Z,12.50
2023-04-20T05:55:33.183Z,13.05
2023-04-20T05:57:59.732Z,13.85
2023-04-20T06:00:26.502Z,13.07
2023-04-20T06:02:53.212Z,16.58
2023-04-20T06:05:19.942Z,13.60
2023-04-20T06:07:46.503Z,14.32
2023-04-20T06:10:16.623Z,11.77
2023-04-20T06:12:44.082Z,13.98
2023-04-20T06:15:10.899Z,12.45
2023-04-20T06:17:37.998Z,11.57
2023-04-20T06:20:05.059Z,13.13
2023-04-20T06:22:31.619Z,13.15
2023-04-20T06:24:58.135Z,14.32
2023-04-20T06:27:24.898Z,14.82
2023-04-20T06:29:51.598Z,14.35
2023-04-20T06:32:18.814Z,12.63
2023-04-20T06:34:45.855Z,13.07
2023-04-20T06:37:12.491Z,13.30
2023-04-20T06:39:39.340Z,15.35
2023-04-20T06:42:06.119Z,13.45
2023-04-20T06:44:32.804Z,14.88
2023-04-20T06:46:59.411Z,12.40
2023-04-20T06:49:25.983Z,16.52
2023-04-20T06:51:52.488Z,17.05
2023-04-20T06:54:19.061Z,14.60
2023-04-20T06:56:48.491Z,14.80
2023-04-20T06:59:15.083Z,13.35
2023-04-20T07:01:42.175Z,14.75
2023-04-20T07:04:08.952Z,13.48
2023-04-20T07:06:35.559Z,11.73
2023-04-20T07:09:02.033Z,13.77
2023-04-20T07:11:30.996Z,16.63
2023-04-20T07:13:57.928Z,15.60
2023-04-20T07:16:24.495Z,15.35
2023-04-20T07:18:51.133Z,18.05
2023-04-20T07:21:17.629Z,13.15
2023-04-20T07:23:45.198Z,17.63
2023-04-20T07:26:11.878Z,18.25
2023-04-20T07:28:38.384Z,19.60
2023-04-20T07:31:04.863Z,20.63
2023-04-20T07:33:31.454Z,22.58
2023-04-20T07:35:58.026Z,31.58
2023-04-20T07:38:24.769Z,30.85
2023-04-20T07:40:51.272Z,28.23
2023-04-20T07:43:17.760Z,30.52
2023-04-20T07:45:44.551Z,34.03
2023-04-20T07:48:11.116Z,32.50
2023-04-20T07:50:37.800Z,27.77
2023-04-20T07:53:04.317Z,27.40
2023-04-20T07:55:30.851Z,17.50
2023-04-20T07:57:57.745Z,14.43
2023-04-20T08:00:25.173Z,17.13
2023-04-20T08:02:51.946Z,15.80
2023-04-20T08:05:18.925Z,13.90
2023-04-20T08:07:45.607Z,13.82
2023-04-20T08:10:12.476Z,16.05
2023-04-20T08:12:39.478Z,15.07
2023-04-20T08:15:06.953Z,14.20
2023-04-20T08:17:34.446Z,16.02
2023-04-20T08:20:01.012Z,13.43
2023-04-20T08:22:27.524Z,14.50
2023-04-20T08:24:54.059Z,16.27
2023-04-20T08:27:20.654Z,15.00
2023-04-20T08:29:47.130Z,14.80
2023-04-20T08:32:16.182Z,14.88
2023-04-20T08:34:42.704Z,13.63
2023-04-20T08:37:09.219Z,15.65
2023-04-20T08:39:36.384Z,14.07
2023-04-20T08:42:03.001Z,17.15
2023-04-20T08:44:29.583Z,13.95
2023-04-20T08:46:56.218Z,14.52
2023-04-20T08:49:23.088Z,15.38
2023-04-20T08:51:49.875Z,11.55
2023-04-20T08:54:17.720Z,13.25
2023-04-20T08:56:47.065Z,15.50
2023-04-20T08:59:14.670Z,14.75
2023-04-20T09:01:41.959Z,15.13
2023-04-20T09:04:17.906Z,15.63
2023-04-20T09:06:46.268Z,15.73
2023-04-20T09:09:13.253Z,14.55
2023-04-20T09:11:39.827Z,12.50
2023-04-20T09:14:08.062Z,12.20
2023-04-20T09:16:34.703Z,14.27
2023-04-20T09:19:04.193Z,12.38
2023-04-20T09:21:30.689Z,13.18
2023-04-20T09:24:01.752Z,11.38
2023-04-20T09:26:31.951Z,12.23
2023-04-20T09:31:25.003Z,12.93
2023-04-20T09:34:02.724Z,11.98
2023-04-20T09:36:40.557Z,11.25
2023-04-20T09:39:09.766Z,12.35
2023-04-20T09:41:37.024Z,17.23
2023-04-20T09:44:04.288Z,11.43
2023-04-20T09:46:32.766Z,11.88
2023-04-20T09:49:00.596Z,15.52
2023-04-20T09:51:27.909Z,12.60
2023-04-20T09:53:56.409Z,13.07
2023-04-20T09:56:22.917Z,12.15
2023-04-20T09:58:50.901Z,11.32
2023-04-20T10:01:17.851Z,11.20
2023-04-20T10:03:45.155Z,16.83
2023-04-20T10:06:22.614Z,12.27
2023-04-20T10:08:53.000Z,12.23
2023-04-20T10:11:44.709Z,13.52
2023-04-20T10:14:25.822Z,15.10
2023-04-20T10:17:07.209Z,13.30
2023-04-20T10:19:44.080Z,12.48
2023-04-20T10:22:25.292Z,12.75
2023-04-20T10:24:51.980Z,12.93
2023-04-20T10:27:22.291Z,13.23
2023-04-20T10:32:28.627Z,12.60
2023-04-20T10:35:06.130Z,12.00
2023-04-20T10:37:32.731Z,14.10
2023-04-20T10:39:59.706Z,11.30
2023-04-20T10:42:26.350Z,12.82
2023-04-20T10:44:54.170Z,12.82
2023-04-20T10:47:30.981Z,10.77
2023-04-20T10:50:08.284Z,11.65
2023-04-20T10:52:35.916Z,10.52
2023-04-20T10:55:03.036Z,7.88
2023-04-20T10:57:29.607Z,9.82
2023-04-20T10:59:56.391Z,8.68
2023-04-20T11:02:23.200Z,8.98
2023-04-20T11:04:50.177Z,7.30
2023-04-20T11:07:16.750Z,7.57
2023-04-20T11:09:43.251Z,7.97
2023-04-20T11:12:12.287Z,6.35
2023-04-20T11:14:49.893Z,6.28
2023-04-20T11:17:16.675Z,7.38
2023-04-20T11:19:43.342Z,10.57
2023-04-20T11:22:21.015Z,6.95
2023-04-20T11:24:47.481Z,8.20
2023-04-20T11:27:20.923Z,8.63
2023-04-20T11:29:56.045Z,8.68
2023-04-20T11:32:23.047Z,9.32
2023-04-20T11:37:26.657Z,10.05
2023-04-20T11:40:00.650Z,10.40
2023-04-20T11:42:27.298Z,10.57
2023-04-20T11:44:56.835Z,9.77
2023-04-20T11:47:23.465Z,11.98
2023-04-20T11:49:50.175Z,11.38
2023-04-20T11:52:16.733Z,10.68
2023-04-20T11:54:43.342Z,10.73
2023-04-20T11:57:09.875Z,9.35
2023-04-20T11:59:36.484Z,10.25
2023-04-20T12:02:03.140Z,9.45
2023-04-20T12:04:30.546Z,8.07
2023-04-20T12:06:57.767Z,7.53
2023-04-20T12:09:24.432Z,6.00
2023-04-20T12:11:50.926Z,7.20
2023-04-20T12:14:17.423Z,7.05
2023-04-20T12:16:43.912Z,7.95
2023-04-20T12:19:10.455Z,6.32
2023-04-20T12:21:37.050Z,6.75
2023-04-20T12:24:03.643Z,5.68
2023-04-20T12:26:37.939Z,5.35
2023-04-20T12:29:05.532Z,8.07
2023-04-20T12:31:32.098Z,6.93
2023-04-20T12:33:58.719Z,5.93
2023-04-20T12:36:25.411Z,5.22
2023-04-20T12:38:51.949Z,4.78
2023-04-20T12:41:18.533Z,6.97
2023-04-20T12:43:45.008Z,7.22
2023-04-20T12:46:11.633Z,6.22
2023-04-20T12:48:38.219Z,5.65
2023-04-20T12:51:04.893Z,5.25
2023-04-20T12:53:31.520Z,5.63
2023-04-20T12:56:01.405Z,4.80
2023-04-20T12:58:28.157Z,6.03
2023-04-20T13:00:54.729Z,5.88
2023-04-20T13:03:21.468Z,5.32
2023-04-20T13:05:48.124Z,5.35
2023-04-20T13:08:14.621Z,8.88
2023-04-20T13:10:41.243Z,6.65
2023-04-20T13:13:07.745Z,6.22
2023-04-20T13:15:38.963Z,9.70
2023-04-20T13:18:06.567Z,6.72
2023-04-20T13:20:35.751Z,6.53
2023-04-20T13:23:02.982Z,6.47
2023-04-20T13:25:31.703Z,11.15
2023-04-20T13:27:58.255Z,7.88
2023-04-20T13:30:24.986Z,4.93
2023-04-20T13:32:51.950Z,5.75
2023-04-20T13:35:18.781Z,6.38
2023-04-20T13:37:46.452Z,5.97
2023-04-20T13:40:13.128Z,5.32
2023-04-20T13:42:39.695Z,8.23
2023-04-20T13:45:07.099Z,5.78
2023-04-20T13:47:33.703Z,4.35
2023-04-20T13:50:02.459Z,4.60
2023-04-20T13:52:29.049Z,5.57
2023-04-20T13:54:55.655Z,5.63
2023-04-20T13:57:22.125Z,6.03
2023-04-20T13:59:48.823Z,7.05
2023-04-20T14:02:15.665Z,7.25
2023-04-20T14:04:42.288Z,6.50
2023-04-20T14:07:08.811Z,6.93
2023-04-20T14:09:35.314Z,7.05
2023-04-20T14:12:01.885Z,7.43
2023-04-20T14:14:28.362Z,5.97
2023-04-20T14:16:57.808Z,5.63
2023-04-20T14:19:24.320Z,6.60
2023-04-20T14:21:50.794Z,5.90
2023-04-20T14:24:17.475Z,5.90
2023-04-20T14:26:44.682Z,7.47
2023-04-20T14:29:11.209Z,6.47
2023-04-20T14:31:37.865Z,5.32
2023-04-20T14:34:04.493Z,4.82
2023-04-20T14:36:31.101Z,5.45
2023-04-20T14:38:57.671Z,5.20
2023-04-20T14:41:24.151Z,4.43
2023-04-20T14:43:50.674Z,5.82
2023-04-20T14:46:18.689Z,5.43
2023-04-20T14:48:45.270Z,4.95
2023-04-20T14:51:12.580Z,6.40
2023-04-20T14:53:39.517Z,4.65
2023-04-20T14:56:06.150Z,5.38
2023-04-20T14:58:32.981Z,4.80
2023-04-20T15:00:59.547Z,4.75
2023-04-20T15:03:26.674Z,6.07
2023-04-20T15:05:58.552Z,5.32
2023-04-20T15:08:25.235Z,5.68
2023-04-20T15:10:51.776Z,5.45
2023-04-20T15:13:18.306Z,5.55
2023-04-20T15:15:49.020Z,6.93
2023-04-20T15:18:17.400Z,5.15
2023-04-20T15:20:44.270Z,5.95
2023-04-20T15:23:11.145Z,5.10
2023-04-20T15:25:38.200Z,5.63
2023-04-20T15:28:04.786Z,7.30
2023-04-20T15:30:31.371Z,6.97
2023-04-20T15:33:05.317Z,6.47
2023-04-20T15:35:32.547Z,4.95
2023-04-20T15:38:01.409Z,5.85
2023-04-20T15:40:27.949Z,5.68
2023-04-20T15:42:54.713Z,4.55
2023-04-20T15:45:21.677Z,6.03
2023-04-20T15:47:50.317Z,6.45
2023-04-20T15:50:17.895Z,6.38
2023-04-20T15:52:44.376Z,8.00
2023-04-20T15:55:11.089Z,6.10
2023-04-20T15:57:37.724Z,6.50
2023-04-20T16:00:04.688Z,5.43
2023-04-20T16:02:31.537Z,5.53
2023-04-20T16:04:58.402Z,6.60
2023-04-20T16:07:25.205Z,7.10
2023-04-20T16:09:54.474Z,6.18
2023-04-20T16:12:20.953Z,5.30
2023-04-20T16:14:47.535Z,4.32
2023-04-20T16:17:14.078Z,5.53
2023-04-20T16:19:40.571Z,5.35
2023-04-20T16:22:07.087Z,5.57
2023-04-20T16:24:33.657Z,5.32
2023-04-20T16:27:00.145Z,5.80
2023-04-20T16:29:27.091Z,5.80
2023-04-20T16:31:53.722Z,5.45
2023-04-20T16:34:23.034Z,5.38
2023-04-20T16:36:49.714Z,5.82
2023-04-20T16:39:16.332Z,5.72
2023-04-20T16:41:42.838Z,5.15
2023-04-20T16:44:09.433Z,6.20
2023-04-20T16:46:38.532Z,6.88
2023-04-20T16:49:05.074Z,6.13
2023-04-20T16:51:31.857Z,5.57
2023-04-20T16:53:58.428Z,5.13
2023-04-20T16:56:24.913Z,5.20
2023-04-20T16:58:51.486Z,5.90
2023-04-20T17:01:18.065Z,6.28
2023-04-20T17:03:44.670Z,6.45
2023-04-20T17:06:14.343Z,6.75
2023-04-20T17:08:41.838Z,8.32
2023-04-20T17:11:08.454Z,7.45
2023-04-20T17:13:34.998Z,7.07
2023-04-20T17:16:01.595Z,6.95
2023-04-20T17:18:29.862Z,9.27
2023-04-20T17:20:58.455Z,5.93
2023-04-20T17:23:25.258Z,6.22
2023-04-20T17:25:51.863Z,5.97
2023-04-20T17:28:18.371Z,6.05
2023-04-20T17:30:45.029Z,8.20
2023-04-20T17:33:11.837Z,7.10
2023-04-20T17:35:41.713Z,6.45
2023-04-20T17:38:08.503Z,6.85
2023-04-20T17:40:35.077Z,5.05
2023-04-20T17:43:01.986Z,7.03
2023-04-20T17:45:28.783Z,6.50
2023-04-20T17:47:58.487Z,6.53
2023-04-20T17:50:25.055Z,7.18
2023-04-20T17:52:51.767Z,6.82
2023-04-20T17:55:18.575Z,7.30
2023-04-20T17:57:45.086Z,9.00
2023-04-20T18:00:12.173Z,7.00
2023-04-20T18:02:39.527Z,10.20
2023-04-20T18:05:06.658Z,7.72
2023-04-20T18:07:33.336Z,7.68
2023-04-20T18:09:59.845Z,6.45
2023-04-20T18:12:26.360Z,7.88
2023-04-20T18:14:52.926Z,6.88
2023-04-20T18:17:19.457Z,9.05
2023-04-20T18:19:46.036Z,8.73
2023-04-20T18:22:15.630Z,11.35
2023-04-20T18:24:42.151Z,8.25
2023-04-20T18:27:08.957Z,7.85
2023-04-20T18:29:35.519Z,8.90
2023-04-20T18:32:02.058Z,8.30
2023-04-20T18:34:28.718Z,6.57
2023-04-20T18:36:55.757Z,7.53
2023-04-20T18:39:22.946Z,7.38
2023-04-20T18:41:49.489Z,8.00
2023-04-20T18:44:18.330Z,7.95
2023-04-20T18:46:45.153Z,12.63
2023-04-20T18:49:14.315Z,8.30
2023-04-20T18:51:40.846Z,8.05
2023-04-20T18:54:07.348Z,8.95
2023-04-20T18:56:34.029Z,9.10
2023-04-20T18:59:00.571Z,8.02
2023-04-20T19:01:27.409Z,8.88
2023-04-20T19:03:54.380Z,7.22
2023-04-20T19:06:21.128Z,6.93
2023-04-20T19:08:47.760Z,13.13
2023-04-20T19:11:14.266Z,11.40
2023-04-20T19:13:40.925Z,11.20
2023-04-20T19:16:07.442Z,11.95
2023-04-20T19:18:33.930Z,10.82
2023-04-20T19:21:00.516Z,9.45
2023-04-20T19:23:27.113Z,10.77
2023-04-20T19:25:53.679Z,11.23
2023-04-20T19:28:22.288Z,9.50
2023-04-20T19:30:50.603Z,8.93
2023-04-20T19:33:19.037Z,9.77
2023-04-20T19:35:45.891Z,7.47
2023-04-20T19:38:12.393Z,8.60
2023-04-20T19:40:39.028Z,7.20
2023-04-20T19:43:05.697Z,7.35
2023-04-20T19:45:32.317Z,8.20
2023-04-20T19:47:58.893Z,7.50
2023-04-20T19:50:25.461Z,7.10
2023-04-20T19:52:52.025Z,7.18
2023-04-20T19:55:18.575Z,8.02
2023-04-20T19:57:45.598Z,6.22
2023-04-20T20:00:12.397Z,9.80
2023-04-20T20:02:40.552Z,6.80
2023-04-20T20:05:10.595Z,7.78
2023-04-20T20:07:37.792Z,7.20
2023-04-20T20:10:04.675Z,8.65
2023-04-20T20:12:31.356Z,8.40
2023-04-20T20:14:58.168Z,7.78
2023-04-20T20:17:24.808Z,7.90
2023-04-20T20:19:52.066Z,7.78
2023-04-20T20:22:20.164Z,6.22
2023-04-20T20:24:46.932Z,5.60
2023-04-20T20:27:13.484Z,6.25
2023-04-20T20:29:43.151Z,9.25
2023-04-20T20:32:09.709Z,24.33
2023-04-20T20:34:36.261Z,10.20
2023-04-20T20:37:02.800Z,9.18
2023-04-20T20:39:29.319Z,25.38
2023-04-20T20:41:55.781Z,20.92
2023-04-20T20:44:22.262Z,15.27
2023-04-20T20:46:48.875Z,8.93
2023-04-20T20:49:15.426Z,9.57
2023-04-20T20:51:41.966Z,8.93
2023-04-20T20:54:08.478Z,9.18
2023-04-20T20:56:35.077Z,8.63
2023-04-20T20:59:02.228Z,8.15
2023-04-20T21:01:28.764Z,8.38
2023-04-20T21:03:58.546Z,8.85
2023-04-20T21:06:25.352Z,9.48
2023-04-20T21:08:52.119Z,6.47
2023-04-20T21:11:18.593Z,5.43
2023-04-20T21:13:45.160Z,6.00
2023-04-20T21:16:11.729Z,6.85
2023-04-20T21:18:38.339Z,6.82
2023-04-20T21:21:05.216Z,7.43
2023-04-20T21:23:31.884Z,7.30
2023-04-20T21:25:58.457Z,7.45
2023-04-20T21:28:24.958Z,6.28
2023-04-20T21:30:51.489Z,7.63
2023-04-20T21:33:18.424Z,6.75
2023-04-20T21:35:44.925Z,6.68
2023-04-20T21:38:11.374Z,7.65
2023-04-20T21:40:37.995Z,6.90
2023-04-20T21:43:04.902Z,10.65
2023-04-20T21:45:31.495Z,7.82
2023-04-20T21:47:58.133Z,6.80
2023-04-20T21:50:24.657Z,8.50
2023-04-20T21:52:51.196Z,7.25
2023-04-20T21:55:17.682Z,8.05
2023-04-20T21:57:44.423Z,7.40
2023-04-20T22:00:11.404Z,7.22
2023-04-20T22:02:38.035Z,7.20
2023-04-20T22:05:05.374Z,8.40
2023-04-20T22:07:31.862Z,7.88
2023-04-20T22:09:58.802Z,9.60
2023-04-20T22:12:36.432Z,9.18
2023-04-20T22:17:34.127Z,9.13
2023-04-20T22:20:00.900Z,9.63
2023-04-20T22:22:27.455Z,9.13
2023-04-20T22:24:53.962Z,9.88
2023-04-20T22:27:20.691Z,9.90
2023-04-20T22:29:47.180Z,10.55
2023-04-20T22:32:13.972Z,9.55
2023-04-20T22:34:41.230Z,9.15
2023-04-20T22:37:07.996Z,11.45
2023-04-20T22:39:35.044Z,10.80
2023-04-20T22:42:01.552Z,11.60
2023-04-20T22:44:28.075Z,10.82
2023-04-20T22:46:54.691Z,10.13
2023-04-20T22:49:21.258Z,12.13
2023-04-20T22:51:47.734Z,10.93
2023-04-20T22:54:14.257Z,9.38
2023-04-20T22:56:40.868Z,11.32
2023-04-20T22:59:07.562Z,10.07
2023-04-20T23:01:34.224Z,10.55
2023-04-20T23:04:00.988Z,10.45
2023-04-20T23:06:27.725Z,9.80
2023-04-20T23:08:54.235Z,10.45
2023-04-20T23:11:20.851Z,9.38
2023-04-20T23:13:50.145Z,8.77
2023-04-20T23:16:16.806Z,9.60
2023-04-20T23:18:43.453Z,8.80
2023-04-20T23:21:09.980Z,8.50
2023-04-20T23:23:36.452Z,8.27
2023-04-20T23:26:03.129Z,8.35
2023-04-20T23:28:29.627Z,9.10
2023-04-20T23:30:56.145Z,8.43
2023-04-20T23:33:22.670Z,8.38
2023-04-20T23:35:49.266Z,7.75
2023-04-20T23:38:15.738Z,8.25
2023-04-20T23:40:42.237Z,7.72
2023-04-20T23:43:08.978Z,8.48
2023-04-20T23:45:35.552Z,8.38
2023-04-20T23:48:04.172Z,9.23
2023-04-20T23:50:30.644Z,8.10
2023-04-20T23:52:57.147Z,7.68
2023-04-20T23:55:25.910Z,7.55
2023-04-20T23:57:52.413Z,7.95
